sensor_id;sensor_type;location;lat;lon;timestamp;temperature;humidity
3860;DHT22;1945;52.036;8.614;2022-08-21T00:01:16;15.60;99.90
3860;DHT22;1945;52.036;8.614;2022-08-21T00:03:45;15.50;99.90
3860;DHT22;1945;52.036;8.614;2022-08-21T00:06:13;15.50;99.90
3860;DHT22;1945;52.036;8.614;2022-08-21T00:08:39;15.60;99.90
3860;DHT22;1945;52.036;8.614;2022-08-21T00:11:07;15.60;99.90
3860;DHT22;1945;52.036;8.614;2022-08-21T00:13:34;15.60;99.90
3860;DHT22;1945;52.036;8.614;2022-08-21T00:16:02;15.60;99.90
3860;DHT22;1945;52.036;8.614;2022-08-21T00:18:30;15.60;99.90
3860;DHT22;1945;52.036;8.614;2022-08-21T00:20:58;15.70;99.90
3860;DHT22;1945;52.036;8.614;2022-08-21T00:23:25;15.70;99.90
3860;DHT22;1945;52.036;8.614;2022-08-21T00:25:51;15.70;99.90
3860;DHT22;1945;52.036;8.614;2022-08-21T00:28:18;15.60;99.90
3860;DHT22;1945;52.036;8.614;2022-08-21T00:30:45;15.70;99.90
3860;DHT22;1945;52.036;8.614;2022-08-21T00:33:12;15.80;99.90
3860;DHT22;1945;52.036;8.614;2022-08-21T00:35:41;15.80;99.90
3860;DHT22;1945;52.036;8.614;2022-08-21T00:38:09;15.90;99.90
3860;DHT22;1945;52.036;8.614;2022-08-21T00:40:41;15.80;99.90
3860;DHT22;1945;52.036;8.614;2022-08-21T00:43:10;15.80;99.90
3860;DHT22;1945;52.036;8.614;2022-08-21T00:45:37;15.80;99.90
3860;DHT22;1945;52.036;8.614;2022-08-21T00:48:05;15.80;99.90
3860;DHT22;1945;52.036;8.614;2022-08-21T00:50:35;15.80;99.90
3860;DHT22;1945;52.036;8.614;2022-08-21T00:53:03;15.80;99.90
3860;DHT22;1945;52.036;8.614;2022-08-21T00:55:33;15.80;99.90
3860;DHT22;1945;52.036;8.614;2022-08-21T00:58:05;15.80;99.90
3860;DHT22;1945;52.036;8.614;2022-08-21T01:00:36;15.80;99.90
3860;DHT22;1945;52.036;8.614;2022-08-21T01:03:07;15.80;99.90
3860;DHT22;1945;52.036;8.614;2022-08-21T01:05:35;15.70;99.90
3860;DHT22;1945;52.036;8.614;2022-08-21T01:08:03;15.80;99.90
3860;DHT22;1945;52.036;8.614;2022-08-21T01:10:30;15.80;99.90
3860;DHT22;1945;52.036;8.614;2022-08-21T01:12:58;15.60;99.90
3860;DHT22;1945;52.036;8.614;2022-08-21T01:15:30;15.60;99.90
3860;DHT22;1945;52.036;8.614;2022-08-21T01:17:58;15.60;99.90
3860;DHT22;1945;52.036;8.614;2022-08-21T01:20:26;15.60;99.90
3860;DHT22;1945;52.036;8.614;2022-08-21T01:22:54;15.60;99.90
3860;DHT22;1945;52.036;8.614;2022-08-21T01:25:21;15.60;99.90
3860;DHT22;1945;52.036;8.614;2022-08-21T01:27:48;15.60;99.90
3860;DHT22;1945;52.036;8.614;2022-08-21T01:30:17;15.50;99.90
3860;DHT22;1945;52.036;8.614;2022-08-21T01:32:45;15.40;99.90
3860;DHT22;1945;52.036;8.614;2022-08-21T01:35:13;15.40;99.90
3860;DHT22;1945;52.036;8.614;2022-08-21T01:37:42;15.30;99.90
3860;DHT22;1945;52.036;8.614;2022-08-21T01:40:11;15.30;99.90
3860;DHT22;1945;52.036;8.614;2022-08-21T01:42:40;15.30;99.90
3860;DHT22;1945;52.036;8.614;2022-08-21T01:45:08;15.30;99.90
3860;DHT22;1945;52.036;8.614;2022-08-21T01:47:35;15.30;99.90
3860;DHT22;1945;52.036;8.614;2022-08-21T01:50:03;15.30;99.90
3860;DHT22;1945;52.036;8.614;2022-08-21T01:52:31;15.30;99.90
3860;DHT22;1945;52.036;8.614;2022-08-21T01:54:57;15.20;99.90
3860;DHT22;1945;52.036;8.614;2022-08-21T01:57:25;15.20;99.90
3860;DHT22;1945;52.036;8.614;2022-08-21T01:59:52;15.20;99.90
3860;DHT22;1945;52.036;8.614;2022-08-21T02:02:19;15.30;99.90
3860;DHT22;1945;52.036;8.614;2022-08-21T02:04:46;15.20;99.90
3860;DHT22;1945;52.036;8.614;2022-08-21T02:07:13;15.30;99.90
3860;DHT22;1945;52.036;8.614;2022-08-21T02:09:40;15.20;99.90
3860;DHT22;1945;52.036;8.614;2022-08-21T02:12:08;15.10;99.90
3860;DHT22;1945;52.036;8.614;2022-08-21T02:14:37;15.10;99.90
3860;DHT22;1945;52.036;8.614;2022-08-21T02:17:04;15.10;99.90
3860;DHT22;1945;52.036;8.614;2022-08-21T02:19:31;15.10;99.90
3860;DHT22;1945;52.036;8.614;2022-08-21T02:21:57;15.10;99.90
3860;DHT22;1945;52.036;8.614;2022-08-21T02:24:24;15.10;99.90
3860;DHT22;1945;52.036;8.614;2022-08-21T02:26:51;15.20;99.90
3860;DHT22;1945;52.036;8.614;2022-08-21T02:29:17;15.20;99.90
3860;DHT22;1945;52.036;8.614;2022-08-21T02:31:46;15.20;99.90
3860;DHT22;1945;52.036;8.614;2022-08-21T02:34:12;15.20;99.90
3860;DHT22;1945;52.036;8.614;2022-08-21T02:36:39;15.20;99.90
3860;DHT22;1945;52.036;8.614;2022-08-21T02:39:06;15.20;99.90
3860;DHT22;1945;52.036;8.614;2022-08-21T02:41:32;15.20;99.90
3860;DHT22;1945;52.036;8.614;2022-08-21T02:43:59;15.20;99.90
3860;DHT22;1945;52.036;8.614;2022-08-21T02:46:26;15.20;99.90
3860;DHT22;1945;52.036;8.614;2022-08-21T02:48:54;15.20;99.90
3860;DHT22;1945;52.036;8.614;2022-08-21T02:51:20;15.20;99.90
3860;DHT22;1945;52.036;8.614;2022-08-21T02:53:49;15.00;99.90
3860;DHT22;1945;52.036;8.614;2022-08-21T02:56:19;14.90;99.90
3860;DHT22;1945;52.036;8.614;2022-08-21T02:58:50;14.90;99.90
3860;DHT22;1945;52.036;8.614;2022-08-21T03:01:18;14.90;99.90
3860;DHT22;1945;52.036;8.614;2022-08-21T03:03:46;14.90;99.90
3860;DHT22;1945;52.036;8.614;2022-08-21T03:06:17;14.90;99.90
3860;DHT22;1945;52.036;8.614;2022-08-21T03:08:44;14.80;99.90
3860;DHT22;1945;52.036;8.614;2022-08-21T03:11:11;14.80;99.90
3860;DHT22;1945;52.036;8.614;2022-08-21T03:13:38;14.80;99.90
3860;DHT22;1945;52.036;8.614;2022-08-21T03:16:06;14.70;99.90
3860;DHT22;1945;52.036;8.614;2022-08-21T03:18:33;14.70;99.90
3860;DHT22;1945;52.036;8.614;2022-08-21T03:21:01;14.70;99.90
3860;DHT22;1945;52.036;8.614;2022-08-21T03:23:29;14.70;99.90
3860;DHT22;1945;52.036;8.614;2022-08-21T03:25:57;14.70;99.90
3860;DHT22;1945;52.036;8.614;2022-08-21T03:28:24;14.70;99.90
3860;DHT22;1945;52.036;8.614;2022-08-21T03:30:51;14.70;99.90
3860;DHT22;1945;52.036;8.614;2022-08-21T03:33:18;14.80;99.90
3860;DHT22;1945;52.036;8.614;2022-08-21T03:35:57;14.90;99.90
3860;DHT22;1945;52.036;8.614;2022-08-21T03:38:27;14.80;99.90
3860;DHT22;1945;52.036;8.614;2022-08-21T03:40:55;14.80;99.90
3860;DHT22;1945;52.036;8.614;2022-08-21T03:43:22;14.80;99.90
3860;DHT22;1945;52.036;8.614;2022-08-21T03:45:49;14.80;99.90
3860;DHT22;1945;52.036;8.614;2022-08-21T03:48:16;14.80;99.90
3860;DHT22;1945;52.036;8.614;2022-08-21T03:50:43;14.80;99.90
3860;DHT22;1945;52.036;8.614;2022-08-21T03:53:12;14.80;99.90
3860;DHT22;1945;52.036;8.614;2022-08-21T03:55:40;14.80;99.90
3860;DHT22;1945;52.036;8.614;2022-08-21T03:58:08;14.80;99.90
3860;DHT22;1945;52.036;8.614;2022-08-21T04:00:35;14.80;99.90
3860;DHT22;1945;52.036;8.614;2022-08-21T04:03:03;14.90;99.90
3860;DHT22;1945;52.036;8.614;2022-08-21T04:05:29;14.90;99.90
3860;DHT22;1945;52.036;8.614;2022-08-21T04:07:57;14.90;99.90
3860;DHT22;1945;52.036;8.614;2022-08-21T04:10:25;14.90;99.90
3860;DHT22;1945;52.036;8.614;2022-08-21T04:12:53;14.90;99.90
3860;DHT22;1945;52.036;8.614;2022-08-21T04:15:22;14.90;99.90
3860;DHT22;1945;52.036;8.614;2022-08-21T04:17:50;14.90;99.90
3860;DHT22;1945;52.036;8.614;2022-08-21T04:20:17;14.80;99.90
3860;DHT22;1945;52.036;8.614;2022-08-21T04:22:44;14.90;99.90
3860;DHT22;1945;52.036;8.614;2022-08-21T04:25:11;14.80;99.90
3860;DHT22;1945;52.036;8.614;2022-08-21T04:27:38;14.80;99.90
3860;DHT22;1945;52.036;8.614;2022-08-21T04:30:07;14.80;99.90
3860;DHT22;1945;52.036;8.614;2022-08-21T04:32:36;14.80;99.90
3860;DHT22;1945;52.036;8.614;2022-08-21T04:35:05;14.80;99.90
3860;DHT22;1945;52.036;8.614;2022-08-21T04:37:33;14.80;99.90
3860;DHT22;1945;52.036;8.614;2022-08-21T04:39:59;14.80;99.90
3860;DHT22;1945;52.036;8.614;2022-08-21T04:42:27;14.70;99.90
3860;DHT22;1945;52.036;8.614;2022-08-21T04:44:55;14.70;99.90
3860;DHT22;1945;52.036;8.614;2022-08-21T04:47:23;14.70;99.90
3860;DHT22;1945;52.036;8.614;2022-08-21T04:49:51;14.80;99.90
3860;DHT22;1945;52.036;8.614;2022-08-21T04:52:21;14.80;99.90
3860;DHT22;1945;52.036;8.614;2022-08-21T04:54:50;14.80;99.90
3860;DHT22;1945;52.036;8.614;2022-08-21T04:57:18;14.70;99.90
3860;DHT22;1945;52.036;8.614;2022-08-21T04:59:48;14.70;99.90
3860;DHT22;1945;52.036;8.614;2022-08-21T05:02:18;14.80;99.90
3860;DHT22;1945;52.036;8.614;2022-08-21T05:04:49;14.80;99.90
3860;DHT22;1945;52.036;8.614;2022-08-21T05:07:20;14.80;99.90
3860;DHT22;1945;52.036;8.614;2022-08-21T05:09:49;14.90;99.90
3860;DHT22;1945;52.036;8.614;2022-08-21T05:12:15;14.80;99.90
3860;DHT22;1945;52.036;8.614;2022-08-21T05:14:43;14.80;99.90
3860;DHT22;1945;52.036;8.614;2022-08-21T05:17:10;14.90;99.90
3860;DHT22;1945;52.036;8.614;2022-08-21T05:19:36;15.30;99.90
3860;DHT22;1945;52.036;8.614;2022-08-21T05:22:03;15.70;99.90
3860;DHT22;1945;52.036;8.614;2022-08-21T05:24:32;15.70;99.90
3860;DHT22;1945;52.036;8.614;2022-08-21T05:26:59;16.10;99.90
3860;DHT22;1945;52.036;8.614;2022-08-21T05:29:26;16.50;99.90
3860;DHT22;1945;52.036;8.614;2022-08-21T05:31:52;17.30;99.90
3860;DHT22;1945;52.036;8.614;2022-08-21T05:34:22;17.30;99.90
3860;DHT22;1945;52.036;8.614;2022-08-21T05:36:50;17.70;99.90
3860;DHT22;1945;52.036;8.614;2022-08-21T05:39:17;18.10;99.90
3860;DHT22;1945;52.036;8.614;2022-08-21T05:41:45;18.40;99.90
3860;DHT22;1945;52.036;8.614;2022-08-21T05:44:13;18.70;99.40
3860;DHT22;1945;52.036;8.614;2022-08-21T05:46:39;18.90;1.00
3860;DHT22;1945;52.036;8.614;2022-08-21T05:49:06;19.30;1.00
3860;DHT22;1945;52.036;8.614;2022-08-21T05:51:33;19.60;1.00
3860;DHT22;1945;52.036;8.614;2022-08-21T05:54:00;19.80;1.00
3860;DHT22;1945;52.036;8.614;2022-08-21T05:56:27;20.10;1.00
3860;DHT22;1945;52.036;8.614;2022-08-21T05:58:55;20.40;1.00
3860;DHT22;1945;52.036;8.614;2022-08-21T06:01:22;20.50;99.90
3860;DHT22;1945;52.036;8.614;2022-08-21T06:03:48;20.60;99.90
3860;DHT22;1945;52.036;8.614;2022-08-21T06:06:15;21.00;99.90
3860;DHT22;1945;52.036;8.614;2022-08-21T06:08:42;21.20;35.10
3860;DHT22;1945;52.036;8.614;2022-08-21T06:11:09;21.50;1.00
3860;DHT22;1945;52.036;8.614;2022-08-21T06:13:37;21.50;1.00
3860;DHT22;1945;52.036;8.614;2022-08-21T06:16:08;21.50;1.00
3860;DHT22;1945;52.036;8.614;2022-08-21T06:18:35;21.80;1.00
3860;DHT22;1945;52.036;8.614;2022-08-21T06:21:03;22.10;1.00
3860;DHT22;1945;52.036;8.614;2022-08-21T06:23:30;22.20;1.00
3860;DHT22;1945;52.036;8.614;2022-08-21T06:25:57;22.40;1.00
3860;DHT22;1945;52.036;8.614;2022-08-21T06:28:24;22.70;99.90
3860;DHT22;1945;52.036;8.614;2022-08-21T06:30:50;23.00;99.90
3860;DHT22;1945;52.036;8.614;2022-08-21T06:33:19;23.50;99.90
3860;DHT22;1945;52.036;8.614;2022-08-21T06:35:45;23.40;99.90
3860;DHT22;1945;52.036;8.614;2022-08-21T06:38:12;23.90;99.90
3860;DHT22;1945;52.036;8.614;2022-08-21T06:40:40;23.80;99.90
3860;DHT22;1945;52.036;8.614;2022-08-21T06:43:09;24.20;1.00
3860;DHT22;1945;52.036;8.614;2022-08-21T06:45:36;24.50;99.90
3860;DHT22;1945;52.036;8.614;2022-08-21T06:48:04;24.80;99.90
3860;DHT22;1945;52.036;8.614;2022-08-21T06:50:34;25.00;99.90
3860;DHT22;1945;52.036;8.614;2022-08-21T06:53:03;25.00;1.00
3860;DHT22;1945;52.036;8.614;2022-08-21T06:55:30;25.00;1.00
3860;DHT22;1945;52.036;8.614;2022-08-21T06:57:57;25.10;1.00
3860;DHT22;1945;52.036;8.614;2022-08-21T07:00:24;25.40;1.00
3860;DHT22;1945;52.036;8.614;2022-08-21T07:02:51;25.70;99.90
3860;DHT22;1945;52.036;8.614;2022-08-21T07:05:18;25.60;99.90
3860;DHT22;1945;52.036;8.614;2022-08-21T07:07:46;25.50;99.90
3860;DHT22;1945;52.036;8.614;2022-08-21T07:10:14;25.50;99.90
3860;DHT22;1945;52.036;8.614;2022-08-21T07:12:41;25.90;99.90
3860;DHT22;1945;52.036;8.614;2022-08-21T07:15:09;25.70;99.90
3860;DHT22;1945;52.036;8.614;2022-08-21T07:17:37;26.10;99.90
3860;DHT22;1945;52.036;8.614;2022-08-21T07:20:08;26.10;99.90
3860;DHT22;1945;52.036;8.614;2022-08-21T07:22:35;25.60;93.40
3860;DHT22;1945;52.036;8.614;2022-08-21T07:25:07;25.80;37.90
3860;DHT22;1945;52.036;8.614;2022-08-21T07:27:34;26.20;1.00
3860;DHT22;1945;52.036;8.614;2022-08-21T07:30:01;26.10;1.00
3860;DHT22;1945;52.036;8.614;2022-08-21T07:32:28;26.10;1.00
3860;DHT22;1945;52.036;8.614;2022-08-21T07:34:54;26.50;1.00
3860;DHT22;1945;52.036;8.614;2022-08-21T07:37:21;26.70;1.00
3860;DHT22;1945;52.036;8.614;2022-08-21T07:39:48;26.80;1.00
3860;DHT22;1945;52.036;8.614;2022-08-21T07:42:17;26.70;1.00
3860;DHT22;1945;52.036;8.614;2022-08-21T07:44:44;26.90;1.00
3860;DHT22;1945;52.036;8.614;2022-08-21T07:47:11;26.80;1.00
3860;DHT22;1945;52.036;8.614;2022-08-21T07:49:37;27.10;1.00
3860;DHT22;1945;52.036;8.614;2022-08-21T07:52:05;27.00;1.00
3860;DHT22;1945;52.036;8.614;2022-08-21T07:54:32;26.80;1.00
3860;DHT22;1945;52.036;8.614;2022-08-21T07:56:59;27.20;1.00
3860;DHT22;1945;52.036;8.614;2022-08-21T07:59:27;26.90;1.00
3860;DHT22;1945;52.036;8.614;2022-08-21T08:01:56;27.10;1.00
3860;DHT22;1945;52.036;8.614;2022-08-21T08:04:23;26.90;1.00
3860;DHT22;1945;52.036;8.614;2022-08-21T08:06:49;27.00;1.00
3860;DHT22;1945;52.036;8.614;2022-08-21T08:09:16;27.10;1.00
3860;DHT22;1945;52.036;8.614;2022-08-21T08:11:43;27.00;99.90
3860;DHT22;1945;52.036;8.614;2022-08-21T08:14:10;27.90;1.00
3860;DHT22;1945;52.036;8.614;2022-08-21T08:16:38;27.60;1.00
3860;DHT22;1945;52.036;8.614;2022-08-21T08:19:05;27.30;99.90
3860;DHT22;1945;52.036;8.614;2022-08-21T08:21:32;27.50;99.90
3860;DHT22;1945;52.036;8.614;2022-08-21T08:23:59;27.30;99.90
3860;DHT22;1945;52.036;8.614;2022-08-21T08:26:26;27.90;99.90
3860;DHT22;1945;52.036;8.614;2022-08-21T08:28:53;27.60;99.90
3860;DHT22;1945;52.036;8.614;2022-08-21T08:31:20;27.60;99.90
3860;DHT22;1945;52.036;8.614;2022-08-21T08:33:48;27.40;99.90
3860;DHT22;1945;52.036;8.614;2022-08-21T08:36:15;27.30;99.90
3860;DHT22;1945;52.036;8.614;2022-08-21T08:38:43;27.00;99.90
3860;DHT22;1945;52.036;8.614;2022-08-21T08:41:12;27.00;99.90
3860;DHT22;1945;52.036;8.614;2022-08-21T08:43:40;27.00;99.90
3860;DHT22;1945;52.036;8.614;2022-08-21T08:46:12;27.00;99.90
3860;DHT22;1945;52.036;8.614;2022-08-21T08:48:46;27.00;99.90
3860;DHT22;1945;52.036;8.614;2022-08-21T08:51:21;26.60;99.90
3860;DHT22;1945;52.036;8.614;2022-08-21T08:53:51;26.90;99.90
3860;DHT22;1945;52.036;8.614;2022-08-21T08:56:22;26.60;99.90
3860;DHT22;1945;52.036;8.614;2022-08-21T08:58:52;26.60;99.90
3860;DHT22;1945;52.036;8.614;2022-08-21T09:01:20;26.70;99.90
3860;DHT22;1945;52.036;8.614;2022-08-21T09:03:47;26.60;99.90
3860;DHT22;1945;52.036;8.614;2022-08-21T09:06:28;26.60;99.90
3860;DHT22;1945;52.036;8.614;2022-08-21T09:09:06;26.50;99.90
3860;DHT22;1945;52.036;8.614;2022-08-21T09:11:43;26.30;99.90
3860;DHT22;1945;52.036;8.614;2022-08-21T09:14:24;26.40;99.90
3860;DHT22;1945;52.036;8.614;2022-08-21T09:16:55;26.40;99.90
3860;DHT22;1945;52.036;8.614;2022-08-21T09:19:37;26.30;99.90
3860;DHT22;1945;52.036;8.614;2022-08-21T09:22:17;26.10;99.90
3860;DHT22;1945;52.036;8.614;2022-08-21T09:24:51;26.50;99.90
3860;DHT22;1945;52.036;8.614;2022-08-21T09:27:20;26.30;99.90
3860;DHT22;1945;52.036;8.614;2022-08-21T09:29:50;25.70;99.90
3860;DHT22;1945;52.036;8.614;2022-08-21T09:32:21;26.00;99.90
3860;DHT22;1945;52.036;8.614;2022-08-21T09:34:56;26.30;99.90
3860;DHT22;1945;52.036;8.614;2022-08-21T09:37:25;26.20;99.90
3860;DHT22;1945;52.036;8.614;2022-08-21T09:39:52;25.60;99.90
3860;DHT22;1945;52.036;8.614;2022-08-21T09:42:24;25.80;99.90
3860;DHT22;1945;52.036;8.614;2022-08-21T09:45:12;25.60;99.90
3860;DHT22;1945;52.036;8.614;2022-08-21T09:47:40;25.70;99.90
3860;DHT22;1945;52.036;8.614;2022-08-21T09:50:11;25.40;99.90
3860;DHT22;1945;52.036;8.614;2022-08-21T09:52:46;25.60;99.90
3860;DHT22;1945;52.036;8.614;2022-08-21T09:55:18;25.80;99.90
3860;DHT22;1945;52.036;8.614;2022-08-21T09:58:00;26.00;99.90
3860;DHT22;1945;52.036;8.614;2022-08-21T10:00:30;25.90;99.90
3860;DHT22;1945;52.036;8.614;2022-08-21T10:03:13;25.20;99.90
3860;DHT22;1945;52.036;8.614;2022-08-21T10:05:54;25.50;99.90
3860;DHT22;1945;52.036;8.614;2022-08-21T10:08:24;26.00;99.90
3860;DHT22;1945;52.036;8.614;2022-08-21T10:10:55;26.00;99.90
3860;DHT22;1945;52.036;8.614;2022-08-21T10:13:30;26.10;99.90
3860;DHT22;1945;52.036;8.614;2022-08-21T10:16:08;25.90;99.90
3860;DHT22;1945;52.036;8.614;2022-08-21T10:18:41;25.40;99.90
3860;DHT22;1945;52.036;8.614;2022-08-21T10:21:15;25.10;99.90
3860;DHT22;1945;52.036;8.614;2022-08-21T10:23:54;25.00;99.90
3860;DHT22;1945;52.036;8.614;2022-08-21T10:26:32;24.70;95.30
3860;DHT22;1945;52.036;8.614;2022-08-21T10:29:08;25.10;99.90
3860;DHT22;1945;52.036;8.614;2022-08-21T10:31:44;24.60;78.50
3860;DHT22;1945;52.036;8.614;2022-08-21T10:34:28;24.80;99.90
3860;DHT22;1945;52.036;8.614;2022-08-21T10:37:07;25.40;99.90
3860;DHT22;1945;52.036;8.614;2022-08-21T10:39:45;25.40;99.90
3860;DHT22;1945;52.036;8.614;2022-08-21T10:42:27;25.60;99.90
3860;DHT22;1945;52.036;8.614;2022-08-21T10:45:20;26.10;99.90
3860;DHT22;1945;52.036;8.614;2022-08-21T10:47:54;25.80;99.90
3860;DHT22;1945;52.036;8.614;2022-08-21T10:50:28;25.90;99.90
3860;DHT22;1945;52.036;8.614;2022-08-21T10:55:55;25.70;99.90
3860;DHT22;1945;52.036;8.614;2022-08-21T10:58:28;26.30;99.90
3860;DHT22;1945;52.036;8.614;2022-08-21T11:00:58;26.40;99.90
3860;DHT22;1945;52.036;8.614;2022-08-21T11:03:33;26.00;99.90
3860;DHT22;1945;52.036;8.614;2022-08-21T11:06:05;26.30;99.90
3860;DHT22;1945;52.036;8.614;2022-08-21T11:08:37;26.40;99.90
3860;DHT22;1945;52.036;8.614;2022-08-21T11:11:10;26.40;99.90
3860;DHT22;1945;52.036;8.614;2022-08-21T11:13:41;26.10;99.90
3860;DHT22;1945;52.036;8.614;2022-08-21T11:16:15;25.60;99.90
3860;DHT22;1945;52.036;8.614;2022-08-21T11:18:46;26.00;99.90
3860;DHT22;1945;52.036;8.614;2022-08-21T11:21:26;26.40;99.90
3860;DHT22;1945;52.036;8.614;2022-08-21T11:23:59;26.50;99.90
3860;DHT22;1945;52.036;8.614;2022-08-21T11:26:35;26.70;99.90
3860;DHT22;1945;52.036;8.614;2022-08-21T11:29:09;26.60;99.90
3860;DHT22;1945;52.036;8.614;2022-08-21T11:31:46;26.40;99.90
3860;DHT22;1945;52.036;8.614;2022-08-21T11:34:28;26.70;99.90
3860;DHT22;1945;52.036;8.614;2022-08-21T11:37:03;26.80;99.90
3860;DHT22;1945;52.036;8.614;2022-08-21T11:39:38;26.90;99.90
3860;DHT22;1945;52.036;8.614;2022-08-21T11:42:25;26.90;99.90
3860;DHT22;1945;52.036;8.614;2022-08-21T11:44:56;27.00;99.90
3860;DHT22;1945;52.036;8.614;2022-08-21T11:47:33;26.90;99.90
3860;DHT22;1945;52.036;8.614;2022-08-21T11:50:12;27.00;99.90
3860;DHT22;1945;52.036;8.614;2022-08-21T11:52:44;26.60;99.90
3860;DHT22;1945;52.036;8.614;2022-08-21T11:55:15;26.50;99.90
3860;DHT22;1945;52.036;8.614;2022-08-21T11:57:51;26.40;99.90
3860;DHT22;1945;52.036;8.614;2022-08-21T12:00:24;26.70;99.90
3860;DHT22;1945;52.036;8.614;2022-08-21T12:02:55;26.90;99.90
3860;DHT22;1945;52.036;8.614;2022-08-21T12:05:27;27.20;99.90
3860;DHT22;1945;52.036;8.614;2022-08-21T12:08:03;27.00;99.90
3860;DHT22;1945;52.036;8.614;2022-08-21T12:10:33;27.00;99.90
3860;DHT22;1945;52.036;8.614;2022-08-21T12:13:11;26.90;99.90
3860;DHT22;1945;52.036;8.614;2022-08-21T12:15:47;27.00;99.90
3860;DHT22;1945;52.036;8.614;2022-08-21T12:18:24;27.10;99.90
3860;DHT22;1945;52.036;8.614;2022-08-21T12:21:01;26.70;99.90
3860;DHT22;1945;52.036;8.614;2022-08-21T12:23:32;26.70;99.90
3860;DHT22;1945;52.036;8.614;2022-08-21T12:26:02;27.00;99.90
3860;DHT22;1945;52.036;8.614;2022-08-21T12:28:31;26.80;99.90
3860;DHT22;1945;52.036;8.614;2022-08-21T12:30:59;26.70;99.90
3860;DHT22;1945;52.036;8.614;2022-08-21T12:33:30;26.70;99.90
3860;DHT22;1945;52.036;8.614;2022-08-21T12:36:05;26.40;99.90
3860;DHT22;1945;52.036;8.614;2022-08-21T12:38:39;26.80;99.90
3860;DHT22;1945;52.036;8.614;2022-08-21T12:41:22;26.90;99.90
3860;DHT22;1945;52.036;8.614;2022-08-21T12:43:57;27.00;99.90
3860;DHT22;1945;52.036;8.614;2022-08-21T12:46:29;27.20;99.90
3860;DHT22;1945;52.036;8.614;2022-08-21T12:49:02;27.00;99.90
3860;DHT22;1945;52.036;8.614;2022-08-21T12:51:34;27.10;99.90
3860;DHT22;1945;52.036;8.614;2022-08-21T12:54:04;27.00;99.90
3860;DHT22;1945;52.036;8.614;2022-08-21T12:56:33;27.00;99.90
3860;DHT22;1945;52.036;8.614;2022-08-21T12:59:05;26.80;99.90
3860;DHT22;1945;52.036;8.614;2022-08-21T13:01:34;26.90;99.90
3860;DHT22;1945;52.036;8.614;2022-08-21T13:04:06;27.00;99.90
3860;DHT22;1945;52.036;8.614;2022-08-21T13:06:39;27.10;99.90
3860;DHT22;1945;52.036;8.614;2022-08-21T13:09:11;27.00;99.90
3860;DHT22;1945;52.036;8.614;2022-08-21T13:11:39;26.90;99.90
3860;DHT22;1945;52.036;8.614;2022-08-21T13:14:14;26.90;99.90
3860;DHT22;1945;52.036;8.614;2022-08-21T13:16:43;26.60;99.90
3860;DHT22;1945;52.036;8.614;2022-08-21T13:19:17;26.70;99.90
3860;DHT22;1945;52.036;8.614;2022-08-21T13:21:44;26.80;99.90
3860;DHT22;1945;52.036;8.614;2022-08-21T13:24:19;26.90;99.90
3860;DHT22;1945;52.036;8.614;2022-08-21T13:26:47;26.50;99.90
3860;DHT22;1945;52.036;8.614;2022-08-21T13:29:17;26.60;99.90
3860;DHT22;1945;52.036;8.614;2022-08-21T13:31:48;26.70;99.90
3860;DHT22;1945;52.036;8.614;2022-08-21T13:34:19;26.70;99.90
3860;DHT22;1945;52.036;8.614;2022-08-21T13:36:46;26.70;99.90
3860;DHT22;1945;52.036;8.614;2022-08-21T13:39:17;26.60;99.90
3860;DHT22;1945;52.036;8.614;2022-08-21T13:41:46;26.70;99.90
3860;DHT22;1945;52.036;8.614;2022-08-21T13:44:17;26.70;99.90
3860;DHT22;1945;52.036;8.614;2022-08-21T13:46:46;26.30;99.90
3860;DHT22;1945;52.036;8.614;2022-08-21T13:49:15;26.10;99.90
3860;DHT22;1945;52.036;8.614;2022-08-21T13:51:44;26.10;99.90
3860;DHT22;1945;52.036;8.614;2022-08-21T13:54:20;26.30;99.90
3860;DHT22;1945;52.036;8.614;2022-08-21T13:56:48;26.30;99.90
3860;DHT22;1945;52.036;8.614;2022-08-21T13:59:26;26.10;99.90
3860;DHT22;1945;52.036;8.614;2022-08-21T14:01:55;26.00;95.50
3860;DHT22;1945;52.036;8.614;2022-08-21T14:04:32;25.80;77.00
3860;DHT22;1945;52.036;8.614;2022-08-21T14:06:59;25.80;68.70
3860;DHT22;1945;52.036;8.614;2022-08-21T14:09:31;25.80;84.60
3860;DHT22;1945;52.036;8.614;2022-08-21T14:12:00;25.70;96.50
3860;DHT22;1945;52.036;8.614;2022-08-21T14:14:31;25.80;95.90
3860;DHT22;1945;52.036;8.614;2022-08-21T14:17:01;26.00;99.60
3860;DHT22;1945;52.036;8.614;2022-08-21T14:19:36;26.00;69.30
3860;DHT22;1945;52.036;8.614;2022-08-21T14:22:21;26.10;80.80
3860;DHT22;1945;52.036;8.614;2022-08-21T14:24:49;26.20;86.10
3860;DHT22;1945;52.036;8.614;2022-08-21T14:27:17;26.10;75.60
3860;DHT22;1945;52.036;8.614;2022-08-21T14:29:46;25.90;48.70
3860;DHT22;1945;52.036;8.614;2022-08-21T14:32:15;25.90;59.30
3860;DHT22;1945;52.036;8.614;2022-08-21T14:34:43;25.90;71.10
3860;DHT22;1945;52.036;8.614;2022-08-21T14:37:10;25.80;86.40
3860;DHT22;1945;52.036;8.614;2022-08-21T14:39:36;25.80;93.40
3860;DHT22;1945;52.036;8.614;2022-08-21T14:42:04;26.00;79.10
3860;DHT22;1945;52.036;8.614;2022-08-21T14:44:30;25.90;99.90
3860;DHT22;1945;52.036;8.614;2022-08-21T14:46:59;25.90;99.90
3860;DHT22;1945;52.036;8.614;2022-08-21T14:49:28;25.80;99.90
3860;DHT22;1945;52.036;8.614;2022-08-21T14:51:55;25.70;58.00
3860;DHT22;1945;52.036;8.614;2022-08-21T14:54:23;25.40;86.50
3860;DHT22;1945;52.036;8.614;2022-08-21T14:56:50;25.60;69.40
3860;DHT22;1945;52.036;8.614;2022-08-21T14:59:17;25.60;99.90
3860;DHT22;1945;52.036;8.614;2022-08-21T15:01:44;25.60;78.20
3860;DHT22;1945;52.036;8.614;2022-08-21T15:04:13;25.50;55.40
3860;DHT22;1945;52.036;8.614;2022-08-21T15:06:40;25.50;96.20
3860;DHT22;1945;52.036;8.614;2022-08-21T15:09:06;25.50;90.40
3860;DHT22;1945;52.036;8.614;2022-08-21T15:11:34;25.50;58.90
3860;DHT22;1945;52.036;8.614;2022-08-21T15:14:03;25.50;32.40
3860;DHT22;1945;52.036;8.614;2022-08-21T15:16:33;25.40;94.60
3860;DHT22;1945;52.036;8.614;2022-08-21T15:19:00;25.40;81.60
3860;DHT22;1945;52.036;8.614;2022-08-21T15:21:28;25.30;53.60
3860;DHT22;1945;52.036;8.614;2022-08-21T15:23:55;25.20;17.20
3860;DHT22;1945;52.036;8.614;2022-08-21T15:26:23;25.40;5.90
3860;DHT22;1945;52.036;8.614;2022-08-21T15:28:50;25.40;3.60
3860;DHT22;1945;52.036;8.614;2022-08-21T15:31:19;25.40;18.10
3860;DHT22;1945;52.036;8.614;2022-08-21T15:33:46;25.40;14.80
3860;DHT22;1945;52.036;8.614;2022-08-21T15:36:13;25.10;1.00
3860;DHT22;1945;52.036;8.614;2022-08-21T15:38:41;25.20;1.20
3860;DHT22;1945;52.036;8.614;2022-08-21T15:41:15;25.10;1.00
3860;DHT22;1945;52.036;8.614;2022-08-21T15:43:44;25.00;1.00
3860;DHT22;1945;52.036;8.614;2022-08-21T15:46:13;25.00;1.00
3860;DHT22;1945;52.036;8.614;2022-08-21T15:48:41;25.00;1.00
3860;DHT22;1945;52.036;8.614;2022-08-21T15:51:09;25.10;1.00
3860;DHT22;1945;52.036;8.614;2022-08-21T15:53:36;24.90;1.00
3860;DHT22;1945;52.036;8.614;2022-08-21T15:56:06;25.00;1.00
3860;DHT22;1945;52.036;8.614;2022-08-21T15:58:36;25.10;1.00
3860;DHT22;1945;52.036;8.614;2022-08-21T16:01:03;25.10;1.00
3860;DHT22;1945;52.036;8.614;2022-08-21T16:03:30;25.00;1.00
3860;DHT22;1945;52.036;8.614;2022-08-21T16:05:57;24.80;1.00
3860;DHT22;1945;52.036;8.614;2022-08-21T16:08:24;24.90;1.00
3860;DHT22;1945;52.036;8.614;2022-08-21T16:10:52;24.90;1.00
3860;DHT22;1945;52.036;8.614;2022-08-21T16:13:24;25.00;1.00
3860;DHT22;1945;52.036;8.614;2022-08-21T16:15:52;24.70;1.00
3860;DHT22;1945;52.036;8.614;2022-08-21T16:18:20;24.70;1.00
3860;DHT22;1945;52.036;8.614;2022-08-21T16:20:48;24.60;1.00
3860;DHT22;1945;52.036;8.614;2022-08-21T16:23:15;24.50;1.00